Historique des mesures à Cassis (13260), France
Quotidien Résumé Juin 5, 2021 Unités:  Métrique/US    US   Métrique
Quotidien Hebdomadaire Mensuel Annuel
  Maximum: Minimum: Moyenne:
Température: 70.9 °F /  21.6 °C 55.2 °F /  12.9 °C 61.5 °F /  16.4 °C
Point de rosée: 56.3 °F /  13.5 °C 46.2 °F /  7.9 °C 51.3 °F /  10.7 °C
Humidité: 84% 58% 69%
Vitesse du vent: 26mph /  41.8km/h - 7mph /  11.2km/h
Rafales: 38.9mph /  62.6km/h - -
Vent- - West
Pression: 30 in /  1014.7 hPa 29.8 in /  1009.5 hPa -
Précipitations: 0 in /  0.0 mm    
Historical Graphs
 
 
Mesures pour : Juin 5, 2021
Heure Temperature Point de rosée Pression Vent Vitesse du vent Rafales Humidité Pluie (par heure)
00:11 55.4 °F /  13 °C 50.5 °F /  10.3 °C 29.8in /  1009.5hPa WSW 16.3mph /  26.3km/h 28.6mph /  46.1km/h 84% 0in /  0.0mm
01:11 55.2 °F /  12.9 °C 49.8 °F /  9.9 °C 29.8in /  1009.5hPa WSW 6.5mph /  10.4km/h 26mph /  41.8km/h 82% 0in /  0.0mm
02:11 55.9 °F /  13.3 °C 49.5 °F /  9.7 °C 29.8in /  1010.3hPa WNW 21.7mph /  34.9km/h 29.8mph /  47.9km/h 79% 0in /  0.0mm
03:11 57 °F /  13.9 °C 48.7 °F /  9.3 °C 29.8in /  1010.2hPa NW 26mph /  41.8km/h 38.9mph /  62.6km/h 74% 0in /  0.0mm
04:11 56.3 °F /  13.5 °C 48 °F /  8.9 °C 29.8in /  1010.7hPa WNW 10.3mph /  16.6km/h 24.9mph /  40km/h 74% 0in /  0.0mm
05:11 55.9 °F /  13.3 °C 47.7 °F /  8.7 °C 29.9in /  1011.2hPa WNW 8.5mph /  13.7km/h 13mph /  20.9km/h 74% 0in /  0.0mm
06:11 55.8 °F /  13.2 °C 47.3 °F /  8.5 °C 29.9in /  1011.4hPa WNW 6.3mph /  10.1km/h 12.7mph /  20.5km/h 73% 0in /  0.0mm
07:11 55.8 °F /  13.2 °C 46.2 °F /  7.9 °C 29.9in /  1011.9hPa NW 8.7mph /  14km/h 13.2mph /  21.2km/h 70% 0in /  0.0mm
08:11 55.8 °F /  13.2 °C 46.2 °F /  7.9 °C 29.9in /  1011.7hPa WNW 11.6mph /  18.7km/h 11.6mph /  18.7km/h 70% 0in /  0.0mm
09:11 61 °F /  16.1 °C 49.6 °F /  9.8 °C 29.9in /  1012.3hPa West 4.2mph /  6.8km/h 11.4mph /  18.4km/h 66% 0in /  0.0mm
10:11 62.1 °F /  16.7 °C 50.2 °F /  10.1 °C 29.9in /  1013.0hPa WSW 10.3mph /  16.6km/h 10.7mph /  17.3km/h 65% 0in /  0.0mm
11:11 64.6 °F /  18.1 °C 52.5 °F /  11.4 °C 29.9in /  1013.2hPa West 5.8mph /  9.4km/h 13.4mph /  21.6km/h 65% 0in /  0.0mm
12:11 67.6 °F /  19.8 °C 53.2 °F /  11.8 °C 29.9in /  1013.1hPa NNW 3.8mph /  6.1km/h 6.7mph /  10.8km/h 60% 0in /  0.0mm
13:11 70.9 °F /  21.6 °C 56.3 °F /  13.5 °C 29.9in /  1013.4hPa SE 2.9mph /  4.7km/h 8.1mph /  13km/h 60% 0in /  0.0mm
14:11 70.9 °F /  21.6 °C 55.4 °F /  13 °C 29.9in /  1013.1hPa Calm   4.2mph /  6.8km/h 58% 0in /  0.0mm
15:11 70.5 °F /  21.4 °C 55 °F /  12.8 °C 29.9in /  1013.0hPa SSW 10.5mph /  16.9km/h 13.4mph /  21.6km/h 58% 0in /  0.0mm
16:11 67.8 °F /  19.9 °C 53.4 °F /  11.9 °C 29.9in /  1012.8hPa West 6mph /  9.7km/h 10.7mph /  17.3km/h 60% 0in /  0.0mm
17:11 66.7 °F /  19.3 °C 53.2 °F /  11.8 °C 29.9in /  1012.8hPa Calm   2.5mph /  4km/h 62% 0in /  0.0mm
18:11 65.3 °F /  18.5 °C 52.7 °F /  11.5 °C 29.9in /  1013.5hPa Calm   4mph /  6.5km/h 64% 0in /  0.0mm
19:11 63.9 °F /  17.7 °C 52.7 °F /  11.5 °C 29.9in /  1013.8hPa Calm   0.7mph /  1.1km/h 67% 0in /  0.0mm
20:11 62.8 °F /  17.1 °C 53.2 °F /  11.8 °C 30in /  1014.2hPa WNW 2.7mph /  4.3km/h 9.8mph /  15.8km/h 71% 0in /  0.0mm
21:11 61.3 °F /  16.3 °C 53.1 °F /  11.7 °C 30in /  1014.5hPa WNW 4.5mph /  7.2km/h 6.5mph /  10.4km/h 74% 0in /  0.0mm
22:11 60.1 °F /  15.6 °C 52.5 °F /  11.4 °C 30in /  1014.3hPa Calm   1.8mph /  2.9km/h 76% 0in /  0.0mm
23:11 59.7 °F /  15.4 °C 52.9 °F /  11.6 °C 30in /  1014.7hPa Calm   2.5mph /  4km/h 78% 0in /  0.0mm
Observations météo à CASSIS
WU-History script by Weather Underground - 2 mb